createdAt,value
2022-12-23T00:00:55.015Z,50.885590
2022-12-23T00:01:55.107Z,50.885605
2022-12-23T00:02:55.321Z,50.885521
2022-12-23T00:03:55.068Z,50.885517
2022-12-23T00:04:55.032Z,50.885567
2022-12-23T00:05:55.052Z,50.885536
2022-12-23T00:06:54.996Z,50.885620
2022-12-23T00:07:54.988Z,50.885628
2022-12-23T00:08:55.014Z,50.885620
2022-12-23T00:09:54.986Z,50.885513
2022-12-23T00:10:54.979Z,50.885365
2022-12-23T00:11:54.983Z,50.885628
2022-12-23T00:12:54.951Z,50.885368
2022-12-23T00:13:54.965Z,50.885502
2022-12-23T00:14:54.934Z,50.885525
2022-12-23T00:15:55.070Z,50.885494
2022-12-23T00:16:54.956Z,50.885448
2022-12-23T00:17:54.956Z,50.885548
2022-12-23T00:18:54.976Z,50.885651
2022-12-23T00:19:54.913Z,50.885647
2022-12-23T00:20:54.901Z,50.885593
2022-12-23T00:21:54.881Z,50.885563
2022-12-23T00:22:54.898Z,50.885555
2022-12-23T00:23:54.907Z,50.885559
2022-12-23T00:24:54.926Z,50.885544
2022-12-23T00:25:54.883Z,50.885498
2022-12-23T00:26:54.887Z,50.885399
2022-12-23T00:27:54.876Z,50.885456
2022-12-23T00:28:54.857Z,50.885468
2022-12-23T00:29:54.868Z,50.885525
2022-12-23T00:30:54.939Z,50.885513
2022-12-23T00:31:54.943Z,50.885437
2022-12-23T00:32:54.829Z,50.885544
2022-12-23T00:33:54.846Z,50.885490
2022-12-23T00:34:54.891Z,50.885620
2022-12-23T00:35:54.901Z,50.885563
2022-12-23T00:36:54.824Z,50.885532
2022-12-23T00:37:54.799Z,50.885578
2022-12-23T00:38:54.772Z,50.885551
2022-12-23T00:39:55.228Z,50.885513
2022-12-23T00:40:55.876Z,50.885509
2022-12-23T00:41:54.788Z,50.885719
2022-12-23T00:42:54.785Z,50.885715
2022-12-23T00:43:54.763Z,50.885536
2022-12-23T00:44:54.750Z,50.885494
2022-12-23T00:45:54.789Z,50.885521
2022-12-23T00:46:54.861Z,50.885571
2022-12-23T00:47:55.755Z,50.885498
2022-12-23T00:48:54.727Z,50.885593
2022-12-23T00:49:54.713Z,50.885586
2022-12-23T00:50:54.734Z,50.885578
2022-12-23T00:51:54.803Z,50.885620
2022-12-23T00:52:54.711Z,50.885544
2022-12-23T00:53:54.692Z,50.885506
2022-12-23T00:54:54.690Z,50.885666
2022-12-23T00:55:54.699Z,50.885563
2022-12-23T00:56:54.704Z,50.885544
2022-12-23T00:57:54.801Z,50.885590
2022-12-23T00:58:54.683Z,50.885536
2022-12-23T00:59:54.657Z,50.885555
2022-12-23T01:00:54.736Z,50.885670
2022-12-23T01:01:54.742Z,50.885590
2022-12-23T01:02:54.788Z,50.885590
2022-12-23T01:03:54.652Z,50.885597
2022-12-23T01:04:54.633Z,50.885578
2022-12-23T01:05:54.607Z,50.885563
2022-12-23T01:06:54.630Z,50.885632
2022-12-23T01:07:54.634Z,50.885616
2022-12-23T01:08:54.715Z,50.885647
2022-12-23T01:09:54.639Z,50.885635
2022-12-23T01:10:54.593Z,50.885674
2022-12-23T01:11:54.556Z,50.885670
2022-12-23T01:12:54.586Z,50.885654
2022-12-23T01:13:54.587Z,50.885574
2022-12-23T01:14:54.551Z,50.885536
2022-12-23T01:15:54.555Z,50.885490
2022-12-23T01:16:54.605Z,50.885525
2022-12-23T01:17:54.563Z,50.885601
2022-12-23T01:18:54.533Z,50.885578
2022-12-23T01:19:54.616Z,50.885727
2022-12-23T01:20:54.489Z,50.885651
2022-12-23T01:21:54.525Z,50.885487
2022-12-23T01:22:54.502Z,50.885487
2022-12-23T01:23:54.534Z,50.885529
2022-12-23T01:24:54.535Z,50.885532
2022-12-23T01:25:54.474Z,50.885460
2022-12-23T01:26:54.522Z,50.885601
2022-12-23T01:27:54.483Z,50.885571
2022-12-23T01:28:54.473Z,50.885693
2022-12-23T01:29:54.498Z,50.885647
2022-12-23T01:30:54.499Z,50.885494
2022-12-23T01:31:54.564Z,50.885689
2022-12-23T01:32:54.442Z,50.885651
2022-12-23T01:33:54.440Z,50.885525
2022-12-23T01:34:54.422Z,50.885460
2022-12-23T01:35:54.566Z,50.885471
2022-12-23T01:36:54.423Z,50.885559
2022-12-23T01:37:54.415Z,50.885761
2022-12-23T01:38:54.388Z,50.885803
2022-12-23T01:39:54.389Z,50.885704
2022-12-23T01:40:54.432Z,50.885551
2022-12-23T01:41:54.483Z,50.885532
2022-12-23T01:42:54.432Z,50.885559
2022-12-23T01:43:54.394Z,50.885475
2022-12-23T01:44:54.372Z,50.885609
2022-12-23T01:45:54.421Z,50.885654
2022-12-23T01:46:54.488Z,50.885555
2022-12-23T01:47:54.377Z,50.885502
2022-12-23T01:48:54.340Z,50.885609
2022-12-23T01:49:54.345Z,50.885624
2022-12-23T01:50:54.327Z,50.885605
2022-12-23T01:51:54.351Z,50.885689
2022-12-23T01:52:54.450Z,50.885624
2022-12-23T01:53:54.326Z,50.885670
2022-12-23T01:54:54.360Z,50.885624
2022-12-23T01:55:54.313Z,50.885620
2022-12-23T01:56:54.313Z,50.885628
2022-12-23T01:57:54.319Z,50.885597
2022-12-23T01:58:54.276Z,50.885529
2022-12-23T01:59:54.281Z,50.885502
2022-12-23T02:00:54.301Z,50.885628
2022-12-23T02:01:54.366Z,50.885422
2022-12-23T02:02:54.339Z,50.885475
2022-12-23T02:03:54.284Z,50.885529
2022-12-23T02:04:54.276Z,50.885532
2022-12-23T02:05:54.212Z,50.885536
2022-12-23T02:06:54.227Z,50.885544
2022-12-23T02:07:54.225Z,50.885529
2022-12-23T02:08:54.253Z,50.885521
2022-12-23T02:09:54.208Z,50.885460
2022-12-23T02:10:54.179Z,50.885551
2022-12-23T02:11:54.215Z,50.885582
2022-12-23T02:12:54.186Z,50.885559
2022-12-23T02:13:54.164Z,50.885544
2022-12-23T02:14:57.721Z,50.885506
2022-12-23T02:15:54.155Z,50.885494
2022-12-23T02:16:55.163Z,50.885464
2022-12-23T02:17:54.317Z,50.885593
2022-12-23T02:18:54.143Z,50.885578
2022-12-23T02:19:54.148Z,50.885605
2022-12-23T02:20:54.187Z,50.885387
2022-12-23T02:21:54.089Z,50.885365
2022-12-23T02:22:54.147Z,50.885471
2022-12-23T02:23:54.104Z,50.885506
2022-12-23T02:24:54.106Z,50.885582
2022-12-23T02:25:54.128Z,50.885563
2022-12-23T02:26:54.178Z,50.885616
2022-12-23T02:27:54.135Z,50.885815
2022-12-23T02:28:54.083Z,50.885586
2022-12-23T02:29:54.067Z,50.885632
2022-12-23T02:30:54.117Z,50.885696
2022-12-23T02:31:54.066Z,50.885735
2022-12-23T02:32:54.061Z,50.885658
2022-12-23T02:33:54.065Z,50.885658
2022-12-23T02:34:54.073Z,50.885525
2022-12-23T02:35:54.184Z,50.885559
2022-12-23T02:36:54.166Z,50.885502
2022-12-23T02:37:54.022Z,50.885571
2022-12-23T02:38:55.074Z,50.885593
2022-12-23T02:39:54.071Z,50.885571
2022-12-23T02:40:54.048Z,50.885532
2022-12-23T02:41:54.029Z,50.885509
2022-12-23T02:42:54.859Z,50.885548
2022-12-23T02:43:54.858Z,50.885574
2022-12-23T02:44:54.005Z,50.885578
2022-12-23T02:45:54.100Z,50.885563
2022-12-23T02:46:54.899Z,50.885643
2022-12-23T02:47:54.032Z,50.885742
2022-12-23T02:48:54.011Z,50.885723
2022-12-23T02:49:53.954Z,50.885651
2022-12-23T02:50:53.983Z,50.885582
2022-12-23T02:51:54.002Z,50.885601
2022-12-23T02:52:53.975Z,50.885651
2022-12-23T02:53:54.021Z,50.885662
2022-12-23T02:54:53.933Z,50.885597
2022-12-23T02:55:53.926Z,50.885559
2022-12-23T02:56:53.925Z,50.885544
2022-12-23T02:57:53.920Z,50.885567
2022-12-23T02:58:53.931Z,50.885597
2022-12-23T02:59:53.907Z,50.885597
2022-12-23T03:00:53.887Z,50.885586
2022-12-23T03:01:53.973Z,50.885578
2022-12-23T03:02:53.967Z,50.885563
2022-12-23T03:03:53.944Z,50.885605
2022-12-23T03:04:53.915Z,50.885609
2022-12-23T03:05:53.876Z,50.885529
2022-12-23T03:06:53.858Z,50.885559
2022-12-23T03:07:53.862Z,50.885303
2022-12-23T03:08:53.846Z,50.885612
2022-12-23T03:09:53.850Z,50.885548
2022-12-23T03:10:53.857Z,50.885574
2022-12-23T03:11:53.843Z,50.885578
2022-12-23T03:12:53.804Z,50.885525
2022-12-23T03:13:53.832Z,50.885544
2022-12-23T03:14:53.807Z,50.885586
2022-12-23T03:15:53.848Z,50.885651
2022-12-23T03:16:53.810Z,50.885426
2022-12-23T03:17:53.818Z,50.885281
2022-12-23T03:18:53.773Z,50.885460
2022-12-23T03:19:53.801Z,50.885529
2022-12-23T03:20:53.902Z,50.885357
2022-12-23T03:21:53.776Z,50.885433
2022-12-23T03:22:53.765Z,50.885532
2022-12-23T03:23:55.983Z,50.885567
2022-12-23T03:24:54.773Z,50.885494
2022-12-23T03:25:53.734Z,50.885345
2022-12-23T03:26:53.775Z,50.885433
2022-12-23T03:27:53.736Z,50.885448
2022-12-23T03:28:53.698Z,50.885555
2022-12-23T03:29:53.734Z,50.885582
2022-12-23T03:30:53.744Z,50.885532
2022-12-23T03:31:53.734Z,50.885540
2022-12-23T03:32:53.697Z,50.885521
2022-12-23T03:33:53.711Z,50.885700
2022-12-23T03:34:53.686Z,50.885597
2022-12-23T03:35:53.680Z,50.885738
2022-12-23T03:36:53.656Z,50.885498
2022-12-23T03:37:53.782Z,50.885437
2022-12-23T03:38:53.672Z,50.885521
2022-12-23T03:39:53.654Z,50.885303
2022-12-23T03:40:53.674Z,50.885506
2022-12-23T03:41:53.633Z,50.885628
2022-12-23T03:42:53.631Z,50.885551
2022-12-23T03:43:53.660Z,50.885632
2022-12-23T03:45:27.852Z,50.885456
2022-12-23T03:45:55.709Z,50.885494
2022-12-23T03:46:53.625Z,50.885521
2022-12-23T03:47:53.603Z,50.885563
2022-12-23T03:48:53.614Z,50.885563
2022-12-23T03:49:53.581Z,50.885582
2022-12-23T03:50:53.603Z,50.885582
2022-12-23T03:51:54.559Z,50.885498
2022-12-23T03:52:53.620Z,50.885525
2022-12-23T03:53:53.663Z,50.885456
2022-12-23T03:54:53.558Z,50.885445
2022-12-23T03:55:53.580Z,50.885319
2022-12-23T03:56:53.550Z,50.885281
2022-12-23T03:57:53.552Z,50.885456
2022-12-23T03:58:53.492Z,50.885632
2022-12-23T03:59:53.617Z,50.885548
2022-12-23T04:00:53.486Z,50.885628
2022-12-23T04:01:53.659Z,50.885513
2022-12-23T04:02:53.624Z,50.885483
2022-12-23T04:03:53.517Z,50.885689
2022-12-23T04:04:53.644Z,50.885616
2022-12-23T04:05:53.515Z,50.885548
2022-12-23T04:06:53.480Z,50.885609
2022-12-23T04:07:53.507Z,50.885437
2022-12-23T04:08:53.481Z,50.885693
2022-12-23T04:09:53.486Z,50.885685
2022-12-23T04:10:53.486Z,50.885658
2022-12-23T04:11:53.464Z,50.885609
2022-12-23T04:12:53.461Z,50.885567
2022-12-23T04:13:53.455Z,50.885624
2022-12-23T04:14:53.473Z,50.885635
2022-12-23T04:15:53.487Z,50.885612
2022-12-23T04:16:53.415Z,50.885559
2022-12-23T04:17:53.408Z,50.885628
2022-12-23T04:18:53.377Z,50.885689
2022-12-23T04:19:53.390Z,50.885620
2022-12-23T04:20:53.436Z,50.885578
2022-12-23T04:21:53.421Z,50.885582
2022-12-23T04:22:53.377Z,50.885582
2022-12-23T04:23:53.384Z,50.885582
2022-12-23T04:24:53.389Z,50.885590
2022-12-23T04:25:53.339Z,50.885674
2022-12-23T04:26:53.372Z,50.885639
2022-12-23T04:27:53.335Z,50.885639
2022-12-23T04:28:53.363Z,50.885586
2022-12-23T04:29:53.347Z,50.885559
2022-12-23T04:30:53.331Z,50.885593
2022-12-23T04:31:53.347Z,50.885601
2022-12-23T04:32:53.427Z,50.885620
2022-12-23T04:33:53.334Z,50.885620
2022-12-23T04:34:53.287Z,50.885635
2022-12-23T04:35:53.291Z,50.885567
2022-12-23T04:36:53.317Z,50.885605
2022-12-23T04:37:53.413Z,50.885601
2022-12-23T04:38:54.261Z,50.885612
2022-12-23T04:39:53.313Z,50.885639
2022-12-23T04:40:53.300Z,50.885567
2022-12-23T04:41:53.293Z,50.885551
2022-12-23T04:42:53.262Z,50.885502
2022-12-23T04:43:53.628Z,50.885479
2022-12-23T04:44:53.232Z,50.885544
2022-12-23T04:45:53.231Z,50.885616
2022-12-23T04:46:53.295Z,50.885525
2022-12-23T04:47:53.227Z,50.885445
2022-12-23T04:48:53.324Z,50.885445
2022-12-23T04:49:53.241Z,50.885414
2022-12-23T04:50:53.228Z,50.885277
2022-12-23T04:51:53.207Z,50.885445
2022-12-23T04:52:53.205Z,50.885452
2022-12-23T04:53:53.203Z,50.885517
2022-12-23T04:54:53.215Z,50.885502
2022-12-23T04:55:53.187Z,50.885555
2022-12-23T04:56:53.178Z,50.885349
2022-12-23T04:57:53.192Z,50.885323
2022-12-23T04:58:53.136Z,50.885464
2022-12-23T04:59:53.197Z,50.885143
2022-12-23T05:00:53.224Z,50.885479
2022-12-23T05:01:53.309Z,50.885445
2022-12-23T05:02:53.437Z,50.885391
2022-12-23T05:03:53.161Z,50.885544
2022-12-23T05:04:53.089Z,50.885532
2022-12-23T05:05:53.144Z,50.885525
2022-12-23T05:06:53.136Z,50.885483
2022-12-23T05:07:53.079Z,50.885326
2022-12-23T05:08:53.108Z,50.885506
2022-12-23T05:09:53.092Z,50.885555
2022-12-23T05:10:54.220Z,50.885525
2022-12-23T05:11:53.081Z,50.885548
2022-12-23T05:12:53.123Z,50.885532
2022-12-23T05:13:53.069Z,50.885643
2022-12-23T05:14:53.033Z,50.885502
2022-12-23T05:15:53.174Z,50.885834
2022-12-23T05:16:53.155Z,50.885544
2022-12-23T05:17:53.059Z,50.885574
2022-12-23T05:18:53.083Z,50.885406
2022-12-23T05:19:53.047Z,50.885277
2022-12-23T05:20:52.999Z,50.885311
2022-12-23T05:21:53.037Z,50.885384
2022-12-23T05:22:53.052Z,50.885380
2022-12-23T05:23:53.033Z,50.885365
2022-12-23T05:24:52.995Z,50.885391
2022-12-23T05:25:53.009Z,50.885586
2022-12-23T05:26:59.428Z,50.885422
2022-12-23T05:27:55.028Z,50.885403
2022-12-23T05:28:52.954Z,50.885345
2022-12-23T05:29:52.999Z,50.885258
2022-12-23T05:30:52.999Z,50.885117
2022-12-23T05:31:53.020Z,50.885239
2022-12-23T05:32:52.948Z,50.885323
2022-12-23T05:33:53.018Z,50.884991
2022-12-23T05:34:52.949Z,50.884853
2022-12-23T05:35:52.938Z,50.885120
2022-12-23T05:36:52.927Z,50.885330
2022-12-23T05:37:52.932Z,50.885281
2022-12-23T05:38:52.929Z,50.885231
2022-12-23T05:39:52.929Z,50.885391
2022-12-23T05:40:52.900Z,50.885349
2022-12-23T05:41:52.917Z,50.885368
2022-12-23T05:42:52.923Z,50.885544
2022-12-23T05:43:52.888Z,50.885159
2022-12-23T05:44:52.873Z,50.884968
2022-12-23T05:45:52.947Z,50.885063
2022-12-23T05:46:52.871Z,50.885063
2022-12-23T05:47:52.861Z,50.884949
2022-12-23T05:48:52.895Z,50.884914
2022-12-23T05:49:52.870Z,50.885014
2022-12-23T05:50:52.834Z,50.885235
2022-12-23T05:51:52.877Z,50.885464
2022-12-23T05:52:52.827Z,50.885571
2022-12-23T05:53:52.851Z,50.885769
2022-12-23T05:54:52.842Z,50.885700
2022-12-23T05:55:52.788Z,50.885677
2022-12-23T05:56:52.793Z,50.885757
2022-12-23T05:57:52.808Z,50.885635
2022-12-23T05:58:52.817Z,50.885719
2022-12-23T05:59:52.764Z,50.885689
2022-12-23T06:00:52.793Z,50.885723
2022-12-23T06:01:52.892Z,50.885582
2022-12-23T06:02:54.188Z,50.885559
2022-12-23T06:03:53.917Z,50.885666
2022-12-23T06:04:52.757Z,50.885796
2022-12-23T06:05:52.760Z,50.885834
2022-12-23T06:06:52.737Z,50.885880
2022-12-23T06:07:52.737Z,50.885872
2022-12-23T06:08:59.169Z,50.886066
2022-12-23T06:09:53.734Z,50.885925
2022-12-23T06:10:52.751Z,50.885811
2022-12-23T06:11:52.719Z,50.885853
2022-12-23T06:12:52.728Z,50.885822
2022-12-23T06:13:52.743Z,50.885941
2022-12-23T06:14:52.697Z,50.885883
2022-12-23T06:15:52.704Z,50.885818
2022-12-23T06:16:52.773Z,50.885910
2022-12-23T06:17:52.755Z,50.885719
2022-12-23T06:18:52.688Z,50.885845
2022-12-23T06:19:52.712Z,50.885975
2022-12-23T06:20:52.678Z,50.885899
2022-12-23T06:21:52.663Z,50.885857
2022-12-23T06:22:52.669Z,50.885841
2022-12-23T06:23:52.684Z,50.885841
2022-12-23T06:24:52.646Z,50.885841
2022-12-23T06:25:52.619Z,50.885841
2022-12-23T06:26:57.004Z,50.885841
2022-12-23T06:27:53.671Z,50.885841
2022-12-23T06:28:52.622Z,50.885773
2022-12-23T06:29:52.615Z,50.885731
2022-12-23T06:30:52.593Z,50.885654
2022-12-23T06:31:52.681Z,50.885601
2022-12-23T06:32:52.589Z,50.885391
2022-12-23T06:33:52.597Z,50.885624
2022-12-23T06:34:52.615Z,50.885582
2022-12-23T06:35:52.625Z,50.885483
2022-12-23T06:36:52.540Z,50.885620
2022-12-23T06:37:52.545Z,50.885521
2022-12-23T06:38:52.629Z,50.885498
2022-12-23T06:39:52.590Z,50.885460
2022-12-23T06:40:52.546Z,50.885475
2022-12-23T06:41:52.551Z,50.885563
2022-12-23T06:42:52.512Z,50.885647
2022-12-23T06:43:54.451Z,50.885437
2022-12-23T06:44:53.540Z,50.885513
2022-12-23T06:45:52.544Z,50.885624
2022-12-23T06:46:52.503Z,50.885559
2022-12-23T06:47:52.494Z,50.885696
2022-12-23T06:48:52.501Z,50.885647
2022-12-23T06:49:52.488Z,50.885605
2022-12-23T06:50:52.510Z,50.885597
2022-12-23T06:51:52.484Z,50.885582
2022-12-23T06:52:52.460Z,50.885548
2022-12-23T06:53:52.447Z,50.885551
2022-12-23T06:54:52.488Z,50.885559
2022-12-23T06:55:52.462Z,50.885612
2022-12-23T06:56:52.437Z,50.885658
2022-12-23T06:57:52.469Z,50.885628
2022-12-23T06:58:52.433Z,50.885632
2022-12-23T06:59:52.431Z,50.885681
2022-12-23T07:00:52.458Z,50.885635
2022-12-23T07:01:52.605Z,50.885578
2022-12-23T07:02:52.496Z,50.885532
2022-12-23T07:03:52.374Z,50.885586
2022-12-23T07:04:53.417Z,50.885643
2022-12-23T07:05:52.406Z,50.885647
2022-12-23T07:06:52.397Z,50.885609
2022-12-23T07:07:52.348Z,50.885593
2022-12-23T07:08:52.390Z,50.885647
2022-12-23T07:09:52.397Z,50.885586
2022-12-23T07:10:52.391Z,50.885643
2022-12-23T07:11:52.356Z,50.885654
2022-12-23T07:12:52.352Z,50.885601
2022-12-23T07:13:52.322Z,50.885548
2022-12-23T07:14:52.360Z,50.885593
2022-12-23T07:15:52.339Z,50.885578
2022-12-23T07:16:52.363Z,50.885513
2022-12-23T07:17:52.316Z,50.885544
2022-12-23T07:18:52.276Z,50.885563
2022-12-23T07:19:53.340Z,50.885498
2022-12-23T07:20:52.321Z,50.885445
2022-12-23T07:21:52.315Z,50.885376
2022-12-23T07:22:52.269Z,50.885410
2022-12-23T07:23:52.271Z,50.885513
2022-12-23T07:24:52.270Z,50.885624
2022-12-23T07:25:52.248Z,50.885586
2022-12-23T07:26:52.301Z,50.885536
2022-12-23T07:27:52.229Z,50.885540
2022-12-23T07:28:52.223Z,50.885578
2022-12-23T07:29:52.287Z,50.885670
2022-12-23T07:30:52.222Z,50.885555
2022-12-23T07:31:52.273Z,50.885582
2022-12-23T07:32:52.244Z,50.885616
2022-12-23T07:33:52.238Z,50.885632
2022-12-23T07:34:52.192Z,50.885521
2022-12-23T07:35:52.234Z,50.885574
2022-12-23T07:36:52.223Z,50.885555
2022-12-23T07:37:52.271Z,50.885506
2022-12-23T07:38:52.181Z,50.885605
2022-12-23T07:39:52.216Z,50.885525
2022-12-23T07:40:52.168Z,50.885506
2022-12-23T07:42:08.913Z,50.885632
2022-12-23T07:42:54.220Z,50.885532
2022-12-23T07:43:52.173Z,50.885468
2022-12-23T07:44:52.163Z,50.885456
2022-12-23T07:45:59.219Z,50.885429
2022-12-23T07:46:54.110Z,50.885426
2022-12-23T07:47:52.153Z,50.885468
2022-12-23T07:48:52.263Z,50.885601
2022-12-23T07:49:52.136Z,50.885468
2022-12-23T07:50:52.102Z,50.885479
2022-12-23T07:51:52.115Z,50.885574
2022-12-23T07:52:52.116Z,50.885460
2022-12-23T07:53:52.119Z,50.885471
2022-12-23T07:54:52.079Z,50.885509
2022-12-23T07:55:56.403Z,50.885445
2022-12-23T07:56:53.088Z,50.885471
2022-12-23T07:57:52.078Z,50.885517
2022-12-23T07:58:52.118Z,50.885509
2022-12-23T07:59:52.087Z,50.885513
2022-12-23T08:00:52.043Z,50.885525
2022-12-23T08:01:52.179Z,50.885387
2022-12-23T08:02:52.205Z,50.885223
2022-12-23T08:03:52.133Z,50.885376
2022-12-23T08:04:52.139Z,50.885349
2022-12-23T08:05:52.042Z,50.885277
2022-12-23T08:06:52.023Z,50.885395
2022-12-23T08:07:52.004Z,50.885571
2022-12-23T08:08:52.013Z,50.885494
2022-12-23T08:09:51.966Z,50.885494
2022-12-23T08:10:52.057Z,50.885441
2022-12-23T08:11:51.988Z,50.885525
2022-12-23T08:12:52.001Z,50.885468
2022-12-23T08:13:51.961Z,50.885559
2022-12-23T08:14:51.966Z,50.885532
2022-12-23T08:15:51.966Z,50.885502
2022-12-23T08:16:51.994Z,50.885307
2022-12-23T08:17:51.983Z,50.885429
2022-12-23T08:18:52.967Z,50.885349
2022-12-23T08:19:51.937Z,50.885513
2022-12-23T08:20:51.948Z,50.885689
2022-12-23T08:21:52.053Z,50.885490
2022-12-23T08:22:51.908Z,50.885475
2022-12-23T08:23:51.938Z,50.885201
2022-12-23T08:24:51.966Z,50.885078
2022-12-23T08:25:51.907Z,50.885345
2022-12-23T08:26:51.913Z,50.885296
2022-12-23T08:27:51.896Z,50.885269
2022-12-23T08:28:51.910Z,50.885307
2022-12-23T08:29:51.878Z,50.885384
2022-12-23T08:30:51.912Z,50.885559
2022-12-23T08:31:51.844Z,50.885719
2022-12-23T08:32:51.982Z,50.885338
2022-12-23T08:33:51.913Z,50.885460
2022-12-23T08:34:52.859Z,50.885666
2022-12-23T08:35:51.873Z,50.885704
2022-12-23T08:36:51.842Z,50.885540
2022-12-23T08:37:51.967Z,50.885529
2022-12-23T08:38:51.883Z,50.885483
2022-12-23T08:39:51.822Z,50.885685
2022-12-23T08:40:51.828Z,50.885895
2022-12-23T08:41:52.505Z,50.886040
2022-12-23T08:42:51.776Z,50.886166
2022-12-23T08:43:51.817Z,50.886116
2022-12-23T08:44:51.785Z,50.886177
2022-12-23T08:45:51.823Z,50.886215
2022-12-23T08:46:51.868Z,50.886150
2022-12-23T08:47:51.758Z,50.885864
2022-12-23T08:48:51.793Z,50.885643
2022-12-23T08:49:51.764Z,50.885429
2022-12-23T08:50:51.765Z,50.885143
2022-12-23T08:51:52.513Z,50.885311
2022-12-23T08:52:51.731Z,50.885433
2022-12-23T08:53:57.960Z,50.885582
2022-12-23T08:54:53.774Z,50.885666
2022-12-23T08:55:51.687Z,50.885845
2022-12-23T08:56:51.761Z,50.886059
2022-12-23T08:57:51.729Z,50.886406
2022-12-23T08:58:51.686Z,50.886627
2022-12-23T08:59:51.708Z,50.886871
2022-12-23T09:00:51.684Z,50.886768
2022-12-23T09:01:51.815Z,50.886837
2022-12-23T09:02:51.780Z,50.886284
2022-12-23T09:03:51.707Z,50.885742
2022-12-23T09:04:51.682Z,50.885410
2022-12-23T09:05:51.755Z,50.885139
2022-12-23T09:06:51.854Z,50.885029
2022-12-23T09:07:51.645Z,50.885002
2022-12-23T09:08:51.636Z,50.885201
2022-12-23T09:09:51.659Z,50.885452
2022-12-23T09:10:51.645Z,50.885563
2022-12-23T09:11:51.651Z,50.885544
2022-12-23T09:12:51.606Z,50.885574
2022-12-23T09:13:51.623Z,50.885727
2022-12-23T09:14:51.657Z,50.885727
2022-12-23T09:15:51.669Z,50.885727
2022-12-23T09:16:51.609Z,50.885727
2022-12-23T09:17:51.607Z,50.885521
2022-12-23T09:18:51.584Z,50.885586
2022-12-23T09:19:53.221Z,50.885525
2022-12-23T09:20:52.602Z,50.885559
2022-12-23T09:21:51.597Z,50.885590
2022-12-23T09:22:51.614Z,50.885605
2022-12-23T09:23:51.568Z,50.885635
2022-12-23T09:24:51.568Z,50.885624
2022-12-23T09:25:51.543Z,50.885662
2022-12-23T09:26:51.557Z,50.885612
2022-12-23T09:27:51.544Z,50.885670
2022-12-23T09:28:51.528Z,50.885685
2022-12-23T09:29:51.518Z,50.885612
2022-12-23T09:30:51.593Z,50.885578
2022-12-23T09:31:51.533Z,50.885567
2022-12-23T09:32:51.485Z,50.885567
2022-12-23T09:33:51.467Z,50.885506
2022-12-23T09:34:51.508Z,50.885643
2022-12-23T09:35:51.503Z,50.885654
2022-12-23T09:36:55.263Z,50.885551
2022-12-23T09:37:52.453Z,50.885643
2022-12-23T09:38:51.432Z,50.885735
2022-12-23T09:39:51.484Z,50.885746
2022-12-23T09:40:51.479Z,50.885834
2022-12-23T09:41:51.489Z,50.885735
2022-12-23T09:42:51.482Z,50.885612
2022-12-23T09:43:51.453Z,50.885582
2022-12-23T09:44:51.445Z,50.885582
2022-12-23T09:45:51.458Z,50.885498
2022-12-23T09:46:51.492Z,50.885292
2022-12-23T09:47:51.511Z,50.885433
2022-12-23T09:48:51.405Z,50.885536
2022-12-23T09:49:51.411Z,50.885612
2022-12-23T09:50:51.431Z,50.885719
2022-12-23T09:51:51.395Z,50.885525
2022-12-23T09:52:51.365Z,50.885513
2022-12-23T09:53:51.360Z,50.885521
2022-12-23T09:54:51.387Z,50.885498
2022-12-23T09:55:51.407Z,50.885490
2022-12-23T09:56:51.410Z,50.885540
2022-12-23T09:57:51.334Z,50.885536
2022-12-23T09:58:51.353Z,50.885418
2022-12-23T09:59:51.349Z,50.885414
2022-12-23T10:00:51.348Z,50.885220
2022-12-23T10:01:51.451Z,50.885124
2022-12-23T10:02:52.145Z,50.885376
2022-12-23T10:03:51.491Z,50.885445
2022-12-23T10:04:51.357Z,50.885471
2022-12-23T10:05:51.328Z,50.885498
2022-12-23T10:06:51.348Z,50.885559
2022-12-23T10:07:51.298Z,50.885559
2022-12-23T10:08:51.314Z,50.885094
2022-12-23T10:09:51.308Z,50.885242
2022-12-23T10:10:51.289Z,50.885460
2022-12-23T10:11:51.289Z,50.885578
2022-12-23T10:12:51.277Z,50.885494
2022-12-23T10:13:51.252Z,50.885662
2022-12-23T10:14:51.259Z,50.885571
2022-12-23T10:15:51.290Z,50.885509
2022-12-23T10:16:51.217Z,50.885502
2022-12-23T10:17:51.223Z,50.885426
2022-12-23T10:18:51.228Z,50.885483
2022-12-23T10:19:51.236Z,50.885521
2022-12-23T10:20:51.246Z,50.885532
2022-12-23T10:21:51.203Z,50.885487
2022-12-23T10:22:51.224Z,50.885551
2022-12-23T10:23:51.183Z,50.885513
2022-12-23T10:24:51.198Z,50.885517
2022-12-23T10:25:51.221Z,50.885574
2022-12-23T10:26:51.181Z,50.885586
2022-12-23T10:27:51.170Z,50.885563
2022-12-23T10:28:51.160Z,50.885532
2022-12-23T10:29:51.161Z,50.885563
2022-12-23T10:31:11.185Z,50.885544
2022-12-23T10:31:53.208Z,50.885555
2022-12-23T10:32:51.283Z,50.885429
2022-12-23T10:33:51.150Z,50.885197
2022-12-23T10:34:51.135Z,50.885139
2022-12-23T10:35:51.236Z,50.885368
2022-12-23T10:36:51.207Z,50.885437
2022-12-23T10:37:51.122Z,50.885517
2022-12-23T10:38:51.097Z,50.885433
2022-12-23T10:39:51.080Z,50.885483
2022-12-23T10:40:51.092Z,50.885445
2022-12-23T10:41:51.171Z,50.885422
2022-12-23T10:42:51.071Z,50.885445
2022-12-23T10:43:51.094Z,50.885502
2022-12-23T10:44:51.054Z,50.885586
2022-12-23T10:45:51.062Z,50.885586
2022-12-23T10:46:51.098Z,50.885593
2022-12-23T10:47:51.065Z,50.885483
2022-12-23T10:48:51.025Z,50.885555
2022-12-23T10:49:51.049Z,50.885590
2022-12-23T10:50:51.014Z,50.885506
2022-12-23T10:51:51.033Z,50.885567
2022-12-23T10:52:51.133Z,50.885529
2022-12-23T10:53:50.974Z,50.885529
2022-12-23T10:54:50.993Z,50.885445
2022-12-23T10:55:50.979Z,50.885506
2022-12-23T10:56:51.011Z,50.885471
2022-12-23T10:57:51.041Z,50.885468
2022-12-23T10:58:50.978Z,50.885590
2022-12-23T10:59:50.963Z,50.885483
2022-12-23T11:00:51.018Z,50.885456
2022-12-23T11:01:51.191Z,50.885559
2022-12-23T11:02:51.104Z,50.885571
2022-12-23T11:03:51.216Z,50.885601
2022-12-23T11:04:50.929Z,50.885490
2022-12-23T11:05:50.928Z,50.885601
2022-12-23T11:07:10.713Z,50.885559
2022-12-23T11:07:51.913Z,50.885441
2022-12-23T11:08:51.033Z,50.885506
2022-12-23T11:09:50.895Z,50.885567
2022-12-23T11:10:50.919Z,50.885521
2022-12-23T11:11:50.902Z,50.885536
2022-12-23T11:12:50.962Z,50.885548
2022-12-23T11:13:50.904Z,50.885429
2022-12-23T11:14:50.907Z,50.885487
2022-12-23T11:15:50.920Z,50.885590
2022-12-23T11:16:50.899Z,50.885616
2022-12-23T11:17:50.870Z,50.885666
2022-12-23T11:18:50.887Z,50.885582
2022-12-23T11:19:50.879Z,50.885632
2022-12-23T11:20:50.848Z,50.885532
2022-12-23T11:21:50.865Z,50.885574
2022-12-23T11:22:50.860Z,50.885582
2022-12-23T11:23:50.817Z,50.885654
2022-12-23T11:24:50.809Z,50.885689